Viking Destiny — V7HR6 — position and weather

sailwx.info

Track history (hours):
 
Tides and Currents Weather Stations Pressure Air Temp Water Temp Dewpoint Dewpoint Depression Visibility Wind Speed Wind Dir Waves Ship Positions

Viking Destiny

Last reported at 2018-Jun-21 01:33 UTC. Time now 2018-Jun-24 18:45 UTC.
Position N 40°22' W 072°56'.

Length 199 m; draft 8.6 m.

Type: Cargo ship. MMSI: 538007385.

Date/timePositionNaut miles runAvg speedWind from/ knotsBaromVisibWave heightAir tempDewpointWater temp
2018-Jun-21 01:33N 40°22' W 072°56'116.5
2018-Jun-21 01:28N 40°22' W 072°57'816.5
2018-Jun-21 00:59N 40°22' W 073°08'816.2
2018-Jun-21 00:30N 40°22' W 073°18'816.2
2018-Jun-20 23:59N 40°24' W 073°29'816.5
2018-Jun-20 23:30N 40°26' W 073°39'815.6
2018-Jun-20 23:00N 40°27' W 073°49'713.7
2018-Jun-20 22:30N 40°30' W 073°57'815.3
2018-Jun-20 22:01N 40°36' W 074°03'4 7.8
2018-Jun-20 21:30N 40°39' W 074°07'1 2.9
2018-Jun-20 21:00N 40°39' W 074°09'2 4.0
2018-Jun-20 20:30N 40°42' W 074°08'0 0.0
2018-Jun-20 20:00N 40°42' W 074°08'0 0.0
2018-Jun-20 19:30N 40°42' W 074°08'0 0.0
2018-Jun-20 19:00N 40°42' W 074°08'0 0.0
2018-Jun-20 18:30N 40°42' W 074°08'0 0.0
2018-Jun-20 17:57N 40°42' W 074°08'0 0.0
2018-Jun-20 17:30N 40°42' W 074°08'0 0.0
2018-Jun-20 17:00N 40°42' W 074°08'0 0.0
2018-Jun-20 16:30N 40°42' W 074°08'0 0.0
2018-Jun-20 16:00N 40°42' W 074°08'0 0.0
2018-Jun-20 15:30N 40°42' W 074°08'0 0.0
2018-Jun-20 15:00N 40°42' W 074°08'0 0.0
2018-Jun-20 14:30N 40°42' W 074°08'0 0.0
2018-Jun-20 14:00N 40°42' W 074°08'0 0.0
2018-Jun-20 13:30N 40°42' W 074°08'0 0.0
2018-Jun-20 13:00N 40°42' W 074°08'0 0.0
2018-Jun-20 12:30N 40°42' W 074°08'0 0.0
2018-Jun-20 12:00N 40°42' W 074°08'0 0.0
2018-Jun-20 11:30N 40°42' W 074°08'0 0.0
2018-Jun-20 11:00N 40°42' W 074°08'1 1.8
2018-Jun-20 10:30N 40°41' W 074°08'2 4.1
2018-Jun-20 10:00N 40°39' W 074°07'3 5.2
2018-Jun-20 09:30N 40°39' W 074°04'612.0
2018-Jun-20 09:01N 40°33' W 074°02'714.3
2018-Jun-20 08:31N 40°29' W 073°54'5 9.9
2018-Jun-20 08:01N 40°27' W 073°48'2312.7
2018-Jun-20 06:13N 40°04' W 073°45'413.6
2018-Jun-20 05:56N 40°00' W 073°44'1113.5
2018-Jun-20 05:09N 39°50' W 073°43'313.3
2018-Jun-20 04:57N 39°47' W 073°43'613.6
2018-Jun-20 04:30N 39°41' W 073°42'713.6
2018-Jun-20 04:00N 39°34' W 073°42'713.7
2018-Jun-20 03:30N 39°27' W 073°40'713.8
2018-Jun-20 03:00N 39°21' W 073°39'3 5.9
2018-Jun-20 02:30N 39°18' W 073°39'0 0.4
2018-Jun-20 02:00N 39°17' W 073°39'0 0.4
2018-Jun-20 01:30N 39°17' W 073°38'0 0.4
2018-Jun-20 01:00N 39°17' W 073°38'0 0.4
2018-Jun-20 00:29N 39°17' W 073°38'0 0.3
2018-Jun-20 00:00N 39°17' W 073°38'0 0.4
2018-Jun-19 22:56N 39°16' W 073°38'0 0.5
2018-Jun-19 22:28N 39°16' W 073°38'0 0.5
2018-Jun-19 22:00N 39°16' W 073°38'0 0.5
2018-Jun-19 21:30N 39°16' W 073°38'76 4.7
2018-Jun-19 05:18N 39°12' W 075°17'415.1
2018-Jun-19 05:00N 39°16' W 075°20'815.3
2018-Jun-19 04:30N 39°21' W 075°27'815.9
2018-Jun-19 04:00N 39°27' W 075°33'612.8
2018-Jun-19 03:30N 39°34' W 075°34'611.8
2018-Jun-19 03:00N 39°33' W 075°42'510.1
2018-Jun-19 02:30N 39°32' W 075°48'2110.6
2018-Jun-19 00:31N 39°20' W 076°11'012.6
2018-Jun-19 00:30N 39°20' W 076°11'613.0
2018-Jun-19 00:00N 39°14' W 076°14'611.9
2018-Jun-18 23:30N 39°09' W 076°19'612.8
2018-Jun-18 23:00N 39°11' W 076°27'611.5
2018-Jun-18 22:30N 39°14' W 076°33'2 3.0
2018-Jun-18 21:58N 39°15' W 076°35'0 0.0
2018-Jun-18 21:28N 39°15' W 076°35'0 0.0
2018-Jun-18 20:58N 39°15' W 076°35'0 0.0
2018-Jun-18 20:28N 39°15' W 076°35'0 0.0
2018-Jun-18 19:58N 39°15' W 076°35'0 0.0
2018-Jun-18 19:28N 39°15' W 076°35'0 0.0
2018-Jun-18 18:58N 39°15' W 076°35'0 0.0
2018-Jun-18 18:28N 39°15' W 076°35'0 0.0
2018-Jun-18 17:58N 39°15' W 076°35'0 0.0
2018-Jun-18 17:28N 39°15' W 076°35'0 0.0
2018-Jun-18 16:58N 39°15' W 076°35'0 0.0
2018-Jun-18 16:28N 39°15' W 076°35'0 0.0
2018-Jun-18 15:58N 39°15' W 076°35'0 0.0
2018-Jun-18 15:28N 39°15' W 076°35'0 0.0
2018-Jun-18 14:58N 39°15' W 076°35'0 0.0
2018-Jun-18 14:28N 39°15' W 076°35'0 0.0
2018-Jun-18 13:58N 39°15' W 076°35'0 0.0
2018-Jun-18 13:28N 39°15' W 076°35'0 0.0
2018-Jun-18 12:58N 39°15' W 076°35'0 0.0
2018-Jun-18 12:28N 39°15' W 076°35'0 0.0
2018-Jun-18 11:58N 39°15' W 076°35'0 0.0
2018-Jun-18 11:28N 39°15' W 076°35'0 0.0
2018-Jun-18 10:58N 39°15' W 076°35'0 0.0
2018-Jun-18 10:28N 39°15' W 076°35'0 0.0
2018-Jun-18 09:58N 39°15' W 076°35'0 0.0
2018-Jun-18 09:28N 39°15' W 076°35'0 0.0
2018-Jun-18 08:58N 39°15' W 076°35'0 0.0
2018-Jun-18 08:28N 39°15' W 076°35'0 0.0
2018-Jun-18 07:58N 39°15' W 076°35'0 0.0
2018-Jun-18 07:28N 39°15' W 076°35'0 0.0
2018-Jun-18 06:58N 39°15' W 076°35'0 0.0
2018-Jun-18 06:28N 39°15' W 076°35'0 0.0
2018-Jun-18 05:58N 39°15' W 076°35'0 0.2
2018-Jun-18 05:30N 39°15' W 076°35'1 1.9
2018-Jun-18 05:01N 39°15' W 076°33'1 2.6
2018-Jun-18 04:31N 39°14' W 076°32'0 0.0
2018-Jun-18 03:59N 39°14' W 076°32'0 0.0
2018-Jun-18 03:29N 39°14' W 076°32'0 0.0
2018-Jun-18 02:59N 39°14' W 076°32'0 0.0
2018-Jun-18 02:29N 39°14' W 076°32'0 0.0
2018-Jun-18 01:59N 39°14' W 076°32'0 0.0
2018-Jun-18 01:29N 39°14' W 076°32'0 0.0
2018-Jun-18 00:59N 39°14' W 076°32'0 0.0
2018-Jun-18 00:29N 39°14' W 076°32'0 0.0
2018-Jun-17 23:59N 39°14' W 076°32'0 0.0
2018-Jun-17 23:29N 39°14' W 076°32'0 0.0
2018-Jun-17 22:59N 39°14' W 076°32'0 0.0
2018-Jun-17 22:29N 39°14' W 076°32'0 0.0
2018-Jun-17 21:59N 39°14' W 076°32'1 1.1
2018-Jun-17 21:30N 39°14' W 076°32'3 6.1
2018-Jun-17 21:00N 39°12' W 076°30'611.3
2018-Jun-17 20:30N 39°08' W 076°24'714.1
2018-Jun-17 20:00N 39°01' W 076°23'714.9
2018-Jun-17 19:31N 38°54' W 076°24'816.6
2018-Jun-17 19:00N 38°46' W 076°26'916.6
2018-Jun-17 18:28N 38°36' W 076°26'1715.7
2018-Jun-17 17:22N 38°20' W 076°19'616.9
2018-Jun-17 16:59N 38°14' W 076°16'817.0
2018-Jun-17 16:30N 38°06' W 076°13'1716.4
2018-Jun-17 15:28N 37°49' W 076°10'816.5
2018-Jun-17 15:00N 37°42' W 076°10'916.4
2018-Jun-17 14:29N 37°35' W 076°04'715.1
2018-Jun-17 14:00N 37°28' W 076°04'815.3
2018-Jun-17 13:30N 37°20' W 076°05'35511.6
2018-Jun-16 06:51N 31°56' W 079°03'616.5
2018-Jun-16 06:30N 31°52' W 079°07'916.6
2018-Jun-16 05:58N 31°46' W 079°15'  
Track history (hours):
 
Tides and Currents Weather Stations Pressure Air Temp Water Temp Dewpoint Dewpoint Depression Visibility Wind Speed Wind Dir Waves Ship Positions

Viking Destiny

Last reported at 2018-Jun-21 01:33 UTC. Time now 2018-Jun-24 18:45 UTC.
Position N 40°22' W 072°56'.

Length 199 m; draft 8.6 m.

Type: Cargo ship. MMSI: 538007385.

Date/timePositionNaut miles runAvg speedWind from/ knotsBaromVisibWave heightAir tempDewpointWater temp
2018-Jun-21 01:33N 40°22' W 072°56'116.5
2018-Jun-21 01:28N 40°22' W 072°57'816.5
2018-Jun-21 00:59N 40°22' W 073°08'816.2
2018-Jun-21 00:30N 40°22' W 073°18'816.2
2018-Jun-20 23:59N 40°24' W 073°29'816.5
2018-Jun-20 23:30N 40°26' W 073°39'815.6
2018-Jun-20 23:00N 40°27' W 073°49'713.7
2018-Jun-20 22:30N 40°30' W 073°57'815.3
2018-Jun-20 22:01N 40°36' W 074°03'4 7.8
2018-Jun-20 21:30N 40°39' W 074°07'1 2.9
2018-Jun-20 21:00N 40°39' W 074°09'2 4.0
2018-Jun-20 20:30N 40°42' W 074°08'0 0.0
2018-Jun-20 20:00N 40°42' W 074°08'0 0.0
2018-Jun-20 19:30N 40°42' W 074°08'0 0.0
2018-Jun-20 19:00N 40°42' W 074°08'0 0.0
2018-Jun-20 18:30N 40°42' W 074°08'0 0.0
2018-Jun-20 17:57N 40°42' W 074°08'0 0.0
2018-Jun-20 17:30N 40°42' W 074°08'0 0.0
2018-Jun-20 17:00N 40°42' W 074°08'0 0.0
2018-Jun-20 16:30N 40°42' W 074°08'0 0.0
2018-Jun-20 16:00N 40°42' W 074°08'0 0.0
2018-Jun-20 15:30N 40°42' W 074°08'0 0.0
2018-Jun-20 15:00N 40°42' W 074°08'0 0.0
2018-Jun-20 14:30N 40°42' W 074°08'0 0.0
2018-Jun-20 14:00N 40°42' W 074°08'0 0.0
2018-Jun-20 13:30N 40°42' W 074°08'0 0.0
2018-Jun-20 13:00N 40°42' W 074°08'0 0.0
2018-Jun-20 12:30N 40°42' W 074°08'0 0.0
2018-Jun-20 12:00N 40°42' W 074°08'0 0.0
2018-Jun-20 11:30N 40°42' W 074°08'0 0.0
2018-Jun-20 11:00N 40°42' W 074°08'1 1.8
2018-Jun-20 10:30N 40°41' W 074°08'2 4.1
2018-Jun-20 10:00N 40°39' W 074°07'3 5.2
2018-Jun-20 09:30N 40°39' W 074°04'612.0
2018-Jun-20 09:01N 40°33' W 074°02'714.3
2018-Jun-20 08:31N 40°29' W 073°54'5 9.9
2018-Jun-20 08:01N 40°27' W 073°48'2312.7
2018-Jun-20 06:13N 40°04' W 073°45'413.6
2018-Jun-20 05:56N 40°00' W 073°44'1113.5
2018-Jun-20 05:09N 39°50' W 073°43'313.3
2018-Jun-20 04:57N 39°47' W 073°43'613.6
2018-Jun-20 04:30N 39°41' W 073°42'713.6
2018-Jun-20 04:00N 39°34' W 073°42'713.7
2018-Jun-20 03:30N 39°27' W 073°40'713.8
2018-Jun-20 03:00N 39°21' W 073°39'3 5.9
2018-Jun-20 02:30N 39°18' W 073°39'0 0.4
2018-Jun-20 02:00N 39°17' W 073°39'0 0.4
2018-Jun-20 01:30N 39°17' W 073°38'0 0.4
2018-Jun-20 01:00N 39°17' W 073°38'0 0.4
2018-Jun-20 00:29N 39°17' W 073°38'0 0.3
2018-Jun-20 00:00N 39°17' W 073°38'0 0.4
2018-Jun-19 22:56N 39°16' W 073°38'0 0.5
2018-Jun-19 22:28N 39°16' W 073°38'0 0.5
2018-Jun-19 22:00N 39°16' W 073°38'0 0.5
2018-Jun-19 21:30N 39°16' W 073°38'76 4.7
2018-Jun-19 05:18N 39°12' W 075°17'415.1
2018-Jun-19 05:00N 39°16' W 075°20'815.3
2018-Jun-19 04:30N 39°21' W 075°27'815.9
2018-Jun-19 04:00N 39°27' W 075°33'612.8
2018-Jun-19 03:30N 39°34' W 075°34'611.8
2018-Jun-19 03:00N 39°33' W 075°42'510.1
2018-Jun-19 02:30N 39°32' W 075°48'2110.6
2018-Jun-19 00:31N 39°20' W 076°11'012.6
2018-Jun-19 00:30N 39°20' W 076°11'613.0
2018-Jun-19 00:00N 39°14' W 076°14'611.9
2018-Jun-18 23:30N 39°09' W 076°19'612.8
2018-Jun-18 23:00N 39°11' W 076°27'611.5
2018-Jun-18 22:30N 39°14' W 076°33'2 3.0
2018-Jun-18 21:58N 39°15' W 076°35'0 0.0
2018-Jun-18 21:28N 39°15' W 076°35'0 0.0
2018-Jun-18 20:58N 39°15' W 076°35'0 0.0
2018-Jun-18 20:28N 39°15' W 076°35'0 0.0
2018-Jun-18 19:58N 39°15' W 076°35'0 0.0
2018-Jun-18 19:28N 39°15' W 076°35'0 0.0
2018-Jun-18 18:58N 39°15' W 076°35'0 0.0
2018-Jun-18 18:28N 39°15' W 076°35'0 0.0
2018-Jun-18 17:58N 39°15' W 076°35'0 0.0
2018-Jun-18 17:28N 39°15' W 076°35'0 0.0
2018-Jun-18 16:58N 39°15' W 076°35'0 0.0
2018-Jun-18 16:28N 39°15' W 076°35'0 0.0
2018-Jun-18 15:58N 39°15' W 076°35'0 0.0
2018-Jun-18 15:28N 39°15' W 076°35'0 0.0
2018-Jun-18 14:58N 39°15' W 076°35'0 0.0
2018-Jun-18 14:28N 39°15' W 076°35'0 0.0
2018-Jun-18 13:58N 39°15' W 076°35'0 0.0
2018-Jun-18 13:28N 39°15' W 076°35'0 0.0
2018-Jun-18 12:58N 39°15' W 076°35'0 0.0
2018-Jun-18 12:28N 39°15' W 076°35'0 0.0
2018-Jun-18 11:58N 39°15' W 076°35'0 0.0
2018-Jun-18 11:28N 39°15' W 076°35'0 0.0
2018-Jun-18 10:58N 39°15' W 076°35'0 0.0
2018-Jun-18 10:28N 39°15' W 076°35'0 0.0
2018-Jun-18 09:58N 39°15' W 076°35'0 0.0
2018-Jun-18 09:28N 39°15' W 076°35'0 0.0
2018-Jun-18 08:58N 39°15' W 076°35'0 0.0
2018-Jun-18 08:28N 39°15' W 076°35'0 0.0
2018-Jun-18 07:58N 39°15' W 076°35'0 0.0
2018-Jun-18 07:28N 39°15' W 076°35'0 0.0
2018-Jun-18 06:58N 39°15' W 076°35'0 0.0
2018-Jun-18 06:28N 39°15' W 076°35'0 0.0
2018-Jun-18 05:58N 39°15' W 076°35'0 0.2
2018-Jun-18 05:30N 39°15' W 076°35'1 1.9
2018-Jun-18 05:01N 39°15' W 076°33'1 2.6
2018-Jun-18 04:31N 39°14' W 076°32'0 0.0
2018-Jun-18 03:59N 39°14' W 076°32'0 0.0
2018-Jun-18 03:29N 39°14' W 076°32'0 0.0
2018-Jun-18 02:59N 39°14' W 076°32'0 0.0
2018-Jun-18 02:29N 39°14' W 076°32'0 0.0
2018-Jun-18 01:59N 39°14' W 076°32'0 0.0
2018-Jun-18 01:29N 39°14' W 076°32'0 0.0
2018-Jun-18 00:59N 39°14' W 076°32'0 0.0
2018-Jun-18 00:29N 39°14' W 076°32'0 0.0
2018-Jun-17 23:59N 39°14' W 076°32'0 0.0
2018-Jun-17 23:29N 39°14' W 076°32'0 0.0
2018-Jun-17 22:59N 39°14' W 076°32'0 0.0
2018-Jun-17 22:29N 39°14' W 076°32'0 0.0
2018-Jun-17 21:59N 39°14' W 076°32'1 1.1
2018-Jun-17 21:30N 39°14' W 076°32'3 6.1
2018-Jun-17 21:00N 39°12' W 076°30'611.3
2018-Jun-17 20:30N 39°08' W 076°24'714.1
2018-Jun-17 20:00N 39°01' W 076°23'714.9
2018-Jun-17 19:31N 38°54' W 076°24'816.6
2018-Jun-17 19:00N 38°46' W 076°26'916.6
2018-Jun-17 18:28N 38°36' W 076°26'1715.7
2018-Jun-17 17:22N 38°20' W 076°19'616.9
2018-Jun-17 16:59N 38°14' W 076°16'817.0
2018-Jun-17 16:30N 38°06' W 076°13'1716.4
2018-Jun-17 15:28N 37°49' W 076°10'816.5
2018-Jun-17 15:00N 37°42' W 076°10'916.4
2018-Jun-17 14:29N 37°35' W 076°04'715.1
2018-Jun-17 14:00N 37°28' W 076°04'815.3
2018-Jun-17 13:30N 37°20' W 076°05'35511.6
2018-Jun-16 06:51N 31°56' W 079°03'616.5
2018-Jun-16 06:30N 31°52' W 079°07'916.6
2018-Jun-16 05:58N 31°46' W 079°15'  

Dump ship's entire track history